createdAt,value
2023-05-10T10:10:37.920Z,62.65
2023-05-10T10:13:06.055Z,64.28
2023-05-10T10:15:34.624Z,66.04
2023-05-10T10:18:02.706Z,66.31
2023-05-10T10:20:30.537Z,64.25
2023-05-10T10:22:58.101Z,65.02
2023-05-10T10:25:26.588Z,63.92
2023-05-10T10:28:13.431Z,62.87
2023-05-10T10:30:44.004Z,62.63
2023-05-10T10:33:31.669Z,64.62
2023-05-10T10:36:01.475Z,62.30
2023-05-10T10:38:38.185Z,62.03
2023-05-10T10:41:11.805Z,59.82
2023-05-10T10:43:40.830Z,59.32
2023-05-10T10:46:16.057Z,54.85
2023-05-10T10:48:49.569Z,56.37
2023-05-10T10:51:17.693Z,56.42
2023-05-10T10:53:45.693Z,55.62
2023-05-10T10:56:16.465Z,52.17
2023-05-10T10:58:51.430Z,51.67
2023-05-10T11:01:20.623Z,48.82
2023-05-10T11:04:18.738Z,50.32
2023-05-10T11:06:46.503Z,47.18
2023-05-10T11:09:14.270Z,48.24
2023-05-10T11:11:53.201Z,47.28
2023-05-10T11:14:23.036Z,48.53
2023-05-10T11:16:52.943Z,48.52
2023-05-10T11:19:21.322Z,55.20
2023-05-10T11:21:50.428Z,57.97
2023-05-10T11:24:20.082Z,60.75
2023-05-10T11:26:51.590Z,61.66
2023-05-10T11:29:23.185Z,66.34
2023-05-10T11:31:52.309Z,64.84
2023-05-10T11:34:27.339Z,64.76
2023-05-10T11:36:56.805Z,67.15
2023-05-10T11:39:28.411Z,63.13
2023-05-10T11:41:56.792Z,64.60
2023-05-10T11:44:30.536Z,65.60
2023-05-10T11:46:59.990Z,64.48
2023-05-10T11:49:27.674Z,63.53
2023-05-10T11:52:05.335Z,62.17
2023-05-10T11:54:33.870Z,63.50
2023-05-10T11:57:01.669Z,61.23
2023-05-10T11:59:31.071Z,61.84
2023-05-10T12:01:58.984Z,63.71
2023-05-10T12:04:27.076Z,61.06
2023-05-10T12:06:54.980Z,63.10
2023-05-10T12:09:31.856Z,60.95
2023-05-10T12:12:03.790Z,60.92
2023-05-10T12:14:36.566Z,61.42
2023-05-10T12:17:04.273Z,61.47
2023-05-10T12:19:38.582Z,60.71
2023-05-10T12:22:06.669Z,61.56
2023-05-10T12:24:35.740Z,60.21
2023-05-10T12:27:06.277Z,62.29
2023-05-10T12:29:35.513Z,63.03
2023-05-10T12:32:03.393Z,62.95
2023-05-10T12:34:33.463Z,60.88
2023-05-10T12:37:01.890Z,59.91
2023-05-10T12:39:40.200Z,59.47
2023-05-10T12:42:08.249Z,61.65
2023-05-10T12:44:37.587Z,56.97
2023-05-10T12:47:05.314Z,56.29
2023-05-10T12:49:33.090Z,54.87
2023-05-10T12:52:00.754Z,54.20
2023-05-10T12:54:28.325Z,52.25
2023-05-10T12:56:56.200Z,54.21
2023-05-10T12:59:24.041Z,53.67
2023-05-10T13:01:53.036Z,52.98
2023-05-10T13:04:20.754Z,51.71
2023-05-10T13:06:48.968Z,51.39
2023-05-10T13:09:16.526Z,52.27
2023-05-10T13:11:44.373Z,52.12
2023-05-10T13:14:12.241Z,51.88
2023-05-10T13:16:39.857Z,50.61
2023-05-10T13:19:09.105Z,51.33
2023-05-10T13:21:37.450Z,49.39
2023-05-10T13:24:05.132Z,51.05
2023-05-10T13:26:32.945Z,51.45
2023-05-10T13:29:00.802Z,53.06
2023-05-10T13:31:28.579Z,49.76
2023-05-10T13:33:56.824Z,50.57
2023-05-10T13:36:25.904Z,51.63
2023-05-10T13:38:53.582Z,52.27
2023-05-10T13:41:21.329Z,51.54
2023-05-10T13:43:48.916Z,52.29
2023-05-10T13:46:16.486Z,53.36
2023-05-10T13:48:44.291Z,51.20
2023-05-10T13:51:11.982Z,51.94
2023-05-10T13:53:40.992Z,50.11
2023-05-10T13:56:08.830Z,49.73
2023-05-10T13:58:36.777Z,49.34
2023-05-10T14:01:04.408Z,49.24
2023-05-10T14:03:32.310Z,49.77
2023-05-10T14:06:00.188Z,48.97
2023-05-10T14:08:27.793Z,53.93
2023-05-10T14:10:57.055Z,54.56
2023-05-10T14:13:25.065Z,53.77
2023-05-10T14:15:53.798Z,52.15
2023-05-10T14:18:21.793Z,53.52
2023-05-10T14:20:49.923Z,54.77
2023-05-10T14:23:17.598Z,53.52
2023-05-10T14:25:45.287Z,52.11
2023-05-10T14:28:14.361Z,50.35
2023-05-10T14:30:41.988Z,51.68
2023-05-10T14:33:11.632Z,50.79
2023-05-10T14:35:39.484Z,51.13
2023-05-10T14:38:07.116Z,50.31
2023-05-10T14:40:34.881Z,50.61
2023-05-10T14:43:02.718Z,50.84
2023-05-10T14:45:31.844Z,51.28
2023-05-10T14:47:59.709Z,52.80
2023-05-10T14:50:36.619Z,53.88
2023-05-10T14:53:05.276Z,55.09
2023-05-10T14:55:32.961Z,56.52
2023-05-10T14:58:00.566Z,56.21
2023-05-10T15:00:33.039Z,58.37
2023-05-10T15:03:01.248Z,59.22
2023-05-10T15:05:29.479Z,59.02
2023-05-10T15:07:57.798Z,59.07
2023-05-10T15:10:25.588Z,67.83
2023-05-10T15:12:53.168Z,77.66
2023-05-10T15:15:21.104Z,99.89
2023-05-10T15:17:50.263Z,100.00
2023-05-10T15:20:18.272Z,100.00
2023-05-10T15:22:46.059Z,100.00
2023-05-10T15:25:14.182Z,100.00
2023-05-10T15:27:41.904Z,100.00
2023-05-10T15:30:10.723Z,100.00
2023-05-10T15:32:38.965Z,100.00
2023-05-10T15:35:09.483Z,100.00
2023-05-10T15:37:37.463Z,100.00
2023-05-10T15:40:06.334Z,100.00
2023-05-10T15:42:34.104Z,100.00
2023-05-10T15:45:01.944Z,100.00
2023-05-10T15:47:31.312Z,100.00
2023-05-10T15:49:58.899Z,100.00
2023-05-10T15:52:28.025Z,100.00
2023-05-10T15:54:55.826Z,100.00
2023-05-10T15:57:23.434Z,100.00
2023-05-10T15:59:51.165Z,100.00
2023-05-10T16:02:18.939Z,100.00
2023-05-10T16:04:46.557Z,100.00
2023-05-10T16:07:14.431Z,100.00
2023-05-10T16:09:43.656Z,100.00
2023-05-10T16:12:11.619Z,100.00
2023-05-10T16:14:39.477Z,100.00
2023-05-10T16:17:07.296Z,100.00
2023-05-10T16:19:34.980Z,100.00
2023-05-10T16:22:05.550Z,100.00
2023-05-10T16:24:33.524Z,100.00
2023-05-10T16:27:02.500Z,100.00
2023-05-10T16:29:30.255Z,100.00
2023-05-10T16:31:57.996Z,100.00
2023-05-10T16:34:25.718Z,100.00
2023-05-10T16:36:53.456Z,100.00
2023-05-10T16:39:21.599Z,100.00
2023-05-10T16:41:49.334Z,100.00
2023-05-10T16:44:20.572Z,100.00
2023-05-10T16:46:49.064Z,100.00
2023-05-10T16:49:16.713Z,100.00
2023-05-10T16:51:44.726Z,100.00
2023-05-10T16:54:12.402Z,100.00
2023-05-10T16:56:39.973Z,100.00
2023-05-10T16:59:07.666Z,100.00
2023-05-10T17:01:37.866Z,100.00
2023-05-10T17:04:11.783Z,100.00
2023-05-10T17:06:39.800Z,100.00
2023-05-10T17:09:07.479Z,100.00
2023-05-10T17:11:38.348Z,100.00
2023-05-10T17:14:06.340Z,100.00
2023-05-10T17:16:35.354Z,100.00
2023-05-10T17:19:05.154Z,100.00
2023-05-10T17:21:33.092Z,100.00
2023-05-10T17:24:00.699Z,100.00
2023-05-10T17:26:28.370Z,100.00
2023-05-10T17:28:57.403Z,100.00
2023-05-10T17:31:25.362Z,100.00
2023-05-10T17:34:04.708Z,100.00
2023-05-10T17:36:35.287Z,100.00
2023-05-10T17:39:03.167Z,100.00
2023-05-10T17:41:33.266Z,100.00
2023-05-10T17:44:01.070Z,100.00
2023-05-10T17:46:29.439Z,100.00
2023-05-10T17:48:59.806Z,100.00
2023-05-10T17:51:28.205Z,100.00
2023-05-10T17:53:57.920Z,100.00
2023-05-10T17:56:25.704Z,100.00
2023-05-10T17:58:53.525Z,100.00
2023-05-10T18:01:21.495Z,100.00
2023-05-10T18:03:49.994Z,100.00
2023-05-10T18:06:17.880Z,100.00
2023-05-10T18:08:45.804Z,100.00
2023-05-10T18:11:14.962Z,100.00
2023-05-10T18:13:43.006Z,100.00
2023-05-10T18:16:20.913Z,100.00
2023-05-10T18:18:49.801Z,100.00
2023-05-10T18:21:20.746Z,100.00
2023-05-10T18:23:48.480Z,100.00
2023-05-10T18:26:17.720Z,100.00
2023-05-10T18:28:45.507Z,100.00
2023-05-10T18:31:13.175Z,100.00
2023-05-10T18:33:44.423Z,100.00
2023-05-10T18:36:12.640Z,100.00
2023-05-10T18:38:40.719Z,100.00
2023-05-10T18:41:08.745Z,100.00
2023-05-10T18:43:39.254Z,100.00
2023-05-10T18:46:07.169Z,100.00
2023-05-10T18:48:35.576Z,100.00
2023-05-10T18:51:03.414Z,100.00
2023-05-10T18:53:31.159Z,100.00
2023-05-10T18:55:59.185Z,100.00
2023-05-10T18:58:29.027Z,100.00
2023-05-10T19:00:59.949Z,100.00
2023-05-10T19:03:31.325Z,100.00
2023-05-10T19:05:58.887Z,100.00
2023-05-10T19:08:26.728Z,100.00
2023-05-10T19:10:55.061Z,100.00
2023-05-10T19:13:22.727Z,100.00
2023-05-10T19:16:02.818Z,100.00
2023-05-10T19:18:34.629Z,100.00
2023-05-10T19:21:03.366Z,100.00
2023-05-10T19:23:32.490Z,100.00
2023-05-10T19:26:00.625Z,100.00
2023-05-10T19:28:28.192Z,100.00
2023-05-10T19:30:56.117Z,100.00
2023-05-10T19:33:26.796Z,100.00
2023-05-10T19:35:55.409Z,100.00
2023-05-10T19:38:23.767Z,100.00
2023-05-10T19:40:52.113Z,100.00
2023-05-10T19:43:20.496Z,100.00
2023-05-10T19:45:48.617Z,100.00
2023-05-10T19:48:16.656Z,100.00
2023-05-10T19:50:46.026Z,100.00
2023-05-10T19:53:13.841Z,100.00
2023-05-10T19:55:41.404Z,100.00
2023-05-10T19:58:09.180Z,100.00
2023-05-10T20:00:37.710Z,100.00
2023-05-10T20:03:06.377Z,100.00
2023-05-10T20:05:36.255Z,100.00
2023-05-10T20:08:05.487Z,100.00
2023-05-10T20:10:33.086Z,100.00
2023-05-10T20:13:01.309Z,100.00
2023-05-10T20:15:29.904Z,100.00
2023-05-10T20:17:57.562Z,100.00
2023-05-10T20:20:25.249Z,100.00
2023-05-10T20:22:53.142Z,100.00
2023-05-10T20:25:22.353Z,100.00
2023-05-10T20:27:49.897Z,100.00
2023-05-10T20:30:18.360Z,100.00
2023-05-10T20:32:46.153Z,100.00
2023-05-10T20:35:13.731Z,100.00
2023-05-10T20:37:41.863Z,100.00
2023-05-10T20:40:10.161Z,100.00
2023-05-10T20:42:39.478Z,100.00
2023-05-10T20:45:10.957Z,100.00
2023-05-10T20:47:38.782Z,100.00
2023-05-10T20:50:07.391Z,100.00
2023-05-10T20:52:35.344Z,100.00
2023-05-10T20:55:02.880Z,100.00
2023-05-10T20:57:30.691Z,100.00
2023-05-10T21:00:00.052Z,100.00
2023-05-10T21:02:27.775Z,100.00
2023-05-10T21:04:57.769Z,100.00
2023-05-10T21:07:26.304Z,100.00
2023-05-10T21:09:53.881Z,100.00
2023-05-10T21:12:21.441Z,100.00
2023-05-10T21:14:49.433Z,100.00
2023-05-10T21:17:20.134Z,100.00
2023-05-10T21:19:48.258Z,100.00
2023-05-10T21:22:16.101Z,100.00
2023-05-10T21:24:44.033Z,100.00
2023-05-10T21:27:11.616Z,100.00
2023-05-10T21:29:39.875Z,100.00
2023-05-10T21:32:07.572Z,100.00
2023-05-10T21:34:36.663Z,100.00
2023-05-10T21:37:04.543Z,100.00
2023-05-10T21:39:32.207Z,100.00
2023-05-10T21:41:59.777Z,100.00
2023-05-10T21:44:27.769Z,100.00
2023-05-10T21:46:55.375Z,100.00
2023-05-10T21:49:22.938Z,100.00
2023-05-10T21:51:52.201Z,100.00
2023-05-10T21:54:19.848Z,100.00
2023-05-10T21:56:47.675Z,100.00
2023-05-10T21:59:15.732Z,100.00
2023-05-10T22:01:43.341Z,100.00
2023-05-10T22:04:10.914Z,100.00
2023-05-10T22:06:39.414Z,100.00
2023-05-10T22:09:08.407Z,100.00
2023-05-10T22:11:36.024Z,100.00
2023-05-10T22:14:04.294Z,100.00
2023-05-10T22:16:32.343Z,100.00
2023-05-10T22:19:00.062Z,100.00
2023-05-10T22:21:27.927Z,100.00
2023-05-10T22:23:55.580Z,100.00
2023-05-10T22:26:25.444Z,100.00
2023-05-10T22:28:53.276Z,100.00
2023-05-10T22:31:20.911Z,100.00
2023-05-10T22:33:48.508Z,100.00
2023-05-10T22:36:16.371Z,100.00
2023-05-10T22:38:43.955Z,100.00
2023-05-10T22:41:11.527Z,100.00
2023-05-10T22:43:40.999Z,100.00
2023-05-10T22:46:08.649Z,100.00
2023-05-10T22:48:37.034Z,100.00
2023-05-10T22:51:05.087Z,100.00
2023-05-10T22:53:32.786Z,100.00
2023-05-10T22:56:00.527Z,100.00
2023-05-10T22:58:28.458Z,100.00
2023-05-10T23:00:57.551Z,100.00
2023-05-10T23:03:25.775Z,100.00
2023-05-10T23:05:54.010Z,100.00
2023-05-10T23:08:21.971Z,100.00
2023-05-10T23:10:49.862Z,100.00
2023-05-10T23:13:17.890Z,100.00
2023-05-10T23:15:45.505Z,100.00
2023-05-10T23:18:14.459Z,100.00
2023-05-10T23:20:42.607Z,100.00
2023-05-10T23:23:10.398Z,100.00
2023-05-10T23:25:38.177Z,100.00
2023-05-10T23:28:06.048Z,100.00
2023-05-10T23:30:34.051Z,100.00
2023-05-10T23:33:01.688Z,100.00
2023-05-10T23:35:31.198Z,100.00
2023-05-10T23:37:58.880Z,100.00
2023-05-10T23:40:26.424Z,100.00
2023-05-10T23:42:54.541Z,100.00
2023-05-10T23:45:22.055Z,100.00
2023-05-10T23:47:49.643Z,100.00
2023-05-10T23:50:18.153Z,100.00
2023-05-10T23:52:47.465Z,100.00
2023-05-10T23:55:15.280Z,100.00
2023-05-10T23:57:43.278Z,100.00
